SBB weather

Santa Bárbara de Barinas Airport
Santa Bárbara, Barinas, Venezuela

Public forecast

Using degrees Celsius for public forecast. Weather courtesy of forecast.io.

METAR (pilot weather report)

Report is more than 6 hours old.

Closest report is Guasdalito Airport, 40.6 nm (75.1 km) SSE. Retrieved 2018/12/06 00:00 UTC (5 months ago):

SVGD 060000Z /////KT 9999 FEW017 27/20 Q1010

TAF (pilot weather forecast)

Closest forecast is San Antonio Del Tachira Airport, 75.8 nm (140.4 km) W. Retrieved 2019/04/21 12:03 UTC (6 hours ago):

TAF TAF SVSA 211000Z 2112/2212 00000KT 9999 SCT020 TX32/18Z TN23/09Z TEMPO 2112/2114 VRB03KT 8000 DZ BKN020 FM211500 14005KT 9999 SCT020 SCT090